Time;durP1;ratioP1;P1;durP2;ratioP2;P2;SDS_P1;SDS_P2;PMS_P1;PMS_P2;Temp;Humidity;BMP_temperature;BMP_pressure;BME280_temperature;BME280_humidity;BME280_pressure;Samples;Min_cycle;Max_cycle;Signal;HPM_P1;HPM_P2
2024/01/18 00:01:21;;;;;;;23.35;13.80;;;;;;;0.82;71.53;99285.16;7395588;19;20022;-58
2024/01/18 00:03:52;;;;;;;22.85;13.27;;;;;;;0.79;71.97;99285.31;7394087;19;20023;-58
2024/01/18 00:06:22;;;;;;;25.25;13.38;;;;;;;0.69;72.02;99287.63;7391399;19;20491;-59
2024/01/18 00:08:53;;;;;;;23.15;13.23;;;;;;;0.79;71.80;99297.50;7393384;19;20085;-58
2024/01/18 00:11:25;;;;;;;23.08;13.35;;;;;;;0.72;72.15;99299.63;7397187;19;20025;-59
2024/01/18 00:13:55;;;;;;;25.35;13.75;;;;;;;0.63;72.48;99300.97;7393457;19;20030;-59
2024/01/18 00:16:26;;;;;;;23.40;13.20;;;;;;;0.56;72.57;99297.03;7391716;19;20022;-60
2024/01/18 00:18:56;;;;;;;24.05;13.90;;;;;;;0.66;72.47;99306.03;7395102;19;20018;-60
2024/01/18 00:21:28;;;;;;;21.35;13.20;;;;;;;0.72;72.15;99297.84;7393470;19;20021;-60
2024/01/18 00:23:59;;;;;;;21.20;12.93;;;;;;;0.70;72.34;99306.69;7395280;19;20018;-59
2024/01/18 00:26:35;;;;;;;20.70;13.02;;;;;;;0.71;72.33;99313.56;7392803;19;20022;-56
2024/01/18 00:29:05;;;;;;;21.17;13.13;;;;;;;0.85;72.07;99316.25;7393676;19;20022;-56
2024/01/18 00:31:38;;;;;;;20.08;12.45;;;;;;;0.68;72.11;99321.56;7395598;19;20026;-57
2024/01/18 00:34:09;;;;;;;21.10;13.27;;;;;;;0.75;72.10;99324.66;7391917;19;20019;-57
2024/01/18 00:36:39;;;;;;;21.20;12.88;;;;;;;0.85;71.88;99339.69;7392414;19;20026;-55
2024/01/18 00:39:11;;;;;;;23.10;13.68;;;;;;;0.81;72.12;99351.22;7394741;19;20018;-54
2024/01/18 00:41:42;;;;;;;21.75;13.57;;;;;;;0.78;72.38;99337.53;7394578;19;20372;-54
2024/01/18 00:44:12;;;;;;;21.88;14.45;;;;;;;0.80;72.53;99343.47;7394151;19;20025;-59
2024/01/18 00:46:42;;;;;;;23.42;14.18;;;;;;;0.68;72.75;99348.44;7392298;19;20032;-56
2024/01/18 00:49:13;;;;;;;24.17;13.63;;;;;;;0.67;73.51;99351.13;7394506;19;20081;-55
2024/01/18 00:51:43;;;;;;;21.45;13.52;;;;;;;0.73;73.26;99350.81;7393813;19;20018;-58
2024/01/18 00:54:14;;;;;;;22.83;14.18;;;;;;;0.72;73.54;99349.94;7391976;19;20015;-59
2024/01/18 00:56:44;;;;;;;23.85;14.35;;;;;;;0.79;73.24;99334.81;7391968;19;20034;-59
2024/01/18 00:59:15;;;;;;;21.17;13.68;;;;;;;0.86;73.16;99356.16;7393684;19;20042;-59
2024/01/18 01:01:45;;;;;;;22.50;13.80;;;;;;;0.73;73.51;99351.66;7394160;19;20015;-55
2024/01/18 01:04:15;;;;;;;22.88;14.95;;;;;;;0.84;73.55;99358.88;7394187;19;20015;-57
2024/01/18 01:06:45;;;;;;;21.65;13.55;;;;;;;0.65;74.10;99353.84;7391554;19;20030;-58
2024/01/18 01:09:16;;;;;;;20.50;13.50;;;;;;;0.71;74.42;99366.50;7393529;19;20018;-57
2024/01/18 01:11:46;;;;;;;24.80;14.38;;;;;;;0.84;73.92;99358.88;7392912;19;20496;-59
2024/01/18 01:14:17;;;;;;;22.08;13.43;;;;;;;0.85;73.69;99357.09;7391362;19;20045;-59
2024/01/18 01:16:47;;;;;;;22.90;13.48;;;;;;;0.90;73.65;99375.91;7391290;19;20026;-59
2024/01/18 01:19:17;;;;;;;22.80;13.07;;;;;;;0.85;73.63;99381.38;7392728;19;20014;-59
2024/01/18 01:21:47;;;;;;;20.77;13.63;;;;;;;0.83;74.14;99388.44;7393175;19;20026;-58
2024/01/18 01:24:18;;;;;;;20.88;13.77;;;;;;;0.82;74.45;99393.75;7393171;19;20040;-54
2024/01/18 01:26:49;;;;;;;20.77;13.73;;;;;;;0.68;74.86;99387.50;7390912;19;20483;-58
2024/01/18 01:29:19;;;;;;;23.70;13.57;;;;;;;0.65;75.35;99397.25;7391274;19;20093;-58
2024/01/18 01:31:51;;;;;;;21.73;13.80;;;;;;;0.78;74.96;99389.63;7391319;19;20023;-59
2024/01/18 01:34:22;;;;;;;23.98;14.05;;;;;;;0.70;75.13;99390.06;7391792;19;20022;-57
2024/01/18 01:36:52;;;;;;;21.90;13.60;;;;;;;0.73;75.15;99398.53;7391007;19;20038;-59
2024/01/18 01:39:22;;;;;;;23.95;13.48;;;;;;;0.75;75.22;99395.84;7391043;19;20332;-59
2024/01/18 01:41:53;;;;;;;24.58;13.65;;;;;;;0.73;75.18;99398.53;7392407;19;20345;-61
2024/01/18 01:44:23;;;;;;;20.98;12.95;;;;;;;0.75;74.84;99395.84;7391467;19;20550;-60
2024/01/18 01:46:54;;;;;;;23.15;13.82;;;;;;;0.68;75.22;99392.72;7389135;19;20100;-61
2024/01/18 01:49:25;;;;;;;20.02;13.18;;;;;;;0.77;75.31;99408.78;7391684;19;20507;-60
2024/01/18 01:51:56;;;;;;;20.13;13.18;;;;;;;0.79;75.05;99406.94;7391283;19;20039;-60
2024/01/18 01:54:29;;;;;;;20.90;13.15;;;;;;;0.80;75.08;99413.81;7388817;19;20098;-61
2024/01/18 01:57:03;;;;;;;25.10;14.05;;;;;;;0.78;75.17;99415.69;7390097;19;20110;-59
2024/01/18 01:59:36;;;;;;;20.38;12.52;;;;;;;0.71;74.74;99410.78;7392256;19;20026;-57
2024/01/18 02:02:07;;;;;;;21.75;12.70;;;;;;;0.54;75.70;99420.47;7392054;19;20015;-59
2024/01/18 02:04:39;;;;;;;21.02;12.35;;;;;;;0.54;76.06;99423.91;7391972;19;20029;-58
2024/01/18 02:07:12;;;;;;;21.92;12.43;;;;;;;0.71;75.20;99422.97;7389813;19;20014;-59
2024/01/18 02:09:46;;;;;;;20.95;12.20;;;;;;;0.70;75.10;99431.72;7392846;19;20026;-58
2024/01/18 02:12:18;;;;;;;20.85;12.57;;;;;;;0.76;74.85;99420.13;7391976;19;20381;-58
2024/01/18 02:14:48;;;;;;;21.42;13.30;;;;;;;0.56;75.38;99419.44;7390592;19;20036;-58
2024/01/18 02:17:19;;;;;;;19.95;12.30;;;;;;;0.67;75.03;99435.34;7387180;19;20035;-59
2024/01/18 02:19:50;;;;;;;23.88;13.30;;;;;;;0.52;75.21;99427.50;7390892;19;20376;-59
2024/01/18 02:22:24;;;;;;;22.45;13.43;;;;;;;0.44;76.27;99438.34;7390018;19;20512;-59
2024/01/18 02:25:01;;;;;;;20.77;12.40;;;;;;;0.53;75.76;99434.41;7392028;19;20090;-56
2024/01/18 02:27:40;;;;;;;19.05;12.88;;;;;;;0.41;75.95;99433.28;7390349;19;20042;-59
2024/01/18 02:30:11;;;;;;;21.60;12.25;;;;;;;0.43;76.02;99431.47;7392896;19;20344;-60
2024/01/18 02:32:41;;;;;;;19.90;12.40;;;;;;;0.43;76.19;99434.91;7392178;19;20022;-59
2024/01/18 02:35:12;;;;;;;21.48;12.13;;;;;;;0.40;76.04;99439.44;7388152;19;20039;-60
2024/01/18 02:37:44;;;;;;;20.80;12.20;;;;;;;0.42;76.57;99440.16;7394023;19;20065;-59
2024/01/18 02:40:14;;;;;;;20.08;11.98;;;;;;;0.53;76.02;99447.41;7391853;19;20498;-58
2024/01/18 02:42:46;;;;;;;19.98;11.65;;;;;;;0.58;75.41;99448.88;7392378;19;20081;-59
2024/01/18 02:45:17;;;;;;;19.42;11.90;;;;;;;0.51;75.60;99450.13;7390509;19;20014;-61
2024/01/18 02:47:47;;;;;;;20.30;11.30;;;;;;;0.42;75.96;99446.25;7391913;19;20102;-61
2024/01/18 02:50:17;;;;;;;18.60;11.68;;;;;;;0.39;76.44;99454.22;7390053;19;20038;-59
2024/01/18 02:52:46;;;;;;;22.88;12.10;;;;;;;0.34;76.56;99456.19;7390372;19;20018;-62
2024/01/18 02:55:18;;;;;;;18.85;11.25;;;;;;;0.36;76.89;99456.13;7388070;19;20018;-62
2024/01/18 02:57:47;;;;;;;20.60;11.60;;;;;;;0.36;76.55;99456.13;7388951;19;20436;-59
2024/01/18 03:00:17;;;;;;;21.00;12.40;;;;;;;0.24;76.84;99458.47;7394312;19;20502;-62
2024/01/18 03:02:47;;;;;;;19.17;12.52;;;;;;;0.26;77.28;99458.38;7397687;19;20542;-61
2024/01/18 03:05:17;;;;;;;21.92;12.65;;;;;;;0.28;77.06;99460.91;7396418;19;20022;-60
2024/01/18 03:07:47;;;;;;;17.38;11.27;;;;;;;0.29;76.89;99445.19;7396531;19;20026;-61
2024/01/18 03:10:18;;;;;;;20.55;12.38;;;;;;;0.37;76.82;99452.59;7397490;19;20082;-59
2024/01/18 03:12:50;;;;;;;20.10;11.88;;;;;;;0.32;76.51;99446.81;7397568;19;20124;-57
2024/01/18 03:15:21;;;;;;;19.42;12.30;;;;;;;0.26;76.95;99454.94;7392788;19;20054;-58
2024/01/18 03:17:52;;;;;;;21.02;11.52;;;;;;;0.23;77.21;99448.13;7396965;19;20015;-56
2024/01/18 03:20:23;;;;;;;18.90;11.75;;;;;;;0.33;76.66;99446.72;7396694;19;20370;-56
2024/01/18 03:22:54;;;;;;;19.00;11.45;;;;;;;0.43;76.29;99452.28;7397211;19;20029;-56
2024/01/18 03:25:25;;;;;;;18.23;11.30;;;;;;;0.37;76.55;99463.00;7395773;19;20042;-58
2024/01/18 03:27:55;;;;;;;18.85;11.18;;;;;;;0.21;76.41;99445.59;7397127;19;20026;-59
2024/01/18 03:30:26;;;;;;;20.88;11.15;;;;;;;0.35;76.87;99459.66;7396407;19;20014;-54
2024/01/18 03:32:56;;;;;;;19.55;10.77;;;;;;;0.40;76.43;99450.69;7396801;19;20487;-56
2024/01/18 03:35:29;;;;;;;17.95;10.60;;;;;;;0.46;75.89;99466.00;7393712;19;20018;-54
2024/01/18 03:37:59;;;;;;;18.52;10.88;;;;;;;0.54;76.01;99467.34;7396544;19;20046;-58
2024/01/18 03:40:37;;;;;;;16.60;10.50;;;;;;;0.40;76.31;99476.72;7396725;19;20033;-56
2024/01/18 03:43:08;;;;;;;17.83;10.68;;;;;;;0.39;76.21;99477.66;7396195;19;20453;-58
2024/01/18 03:45:38;;;;;;;18.98;10.85;;;;;;;0.35;76.63;99480.50;7394921;19;20018;-61
2024/01/18 03:48:09;;;;;;;17.92;10.50;;;;;;;0.31;76.79;99473.78;7396620;19;20022;-61
2024/01/18 03:50:39;;;;;;;16.25;9.98;;;;;;;0.36;76.73;99467.38;7396397;19;20011;-62
2024/01/18 03:53:10;;;;;;;17.58;11.13;;;;;;;0.28;76.86;99472.16;7393893;19;20363;-62
2024/01/18 03:55:41;;;;;;;18.70;10.93;;;;;;;0.29;76.81;99473.84;7393371;19;20022;-62
2024/01/18 03:58:11;;;;;;;18.40;10.68;;;;;;;0.29;76.90;99462.59;7395892;19;20102;-62
2024/01/18 04:00:41;;;;;;;16.48;10.13;;;;;;;0.33;76.65;99474.50;7393886;19;20086;-61
2024/01/18 04:03:12;;;;;;;19.20;11.70;;;;;;;0.24;76.66;99488.84;7393836;19;20014;-62
2024/01/18 04:05:43;;;;;;;19.98;10.93;;;;;;;0.10;77.03;99480.91;7394273;19;20033;-60
2024/01/18 04:08:14;;;;;;;19.92;10.63;;;;;;;0.14;77.36;99485.03;7396650;19;20396;-61
2024/01/18 04:10:44;;;;;;;20.67;11.48;;;;;;;0.10;77.06;99488.72;7395954;19;20023;-58
2024/01/18 04:13:14;;;;;;;20.33;11.30;;;;;;;0.12;77.24;99484.28;7396152;19;20019;-60
2024/01/18 04:15:48;;;;;;;19.13;10.82;;;;;;;0.21;76.91;99481.19;7394076;19;20019;-60
2024/01/18 04:18:18;;;;;;;16.88;11.02;;;;;;;0.30;76.52;99485.09;7395359;19;20019;-59
2024/01/18 04:20:52;;;;;;;17.17;10.63;;;;;;;0.19;76.65;99489.09;7396214;19;20010;-61
2024/01/18 04:23:22;;;;;;;17.27;10.63;;;;;;;0.11;77.08;99495.59;7395780;19;20018;-61
2024/01/18 04:25:54;;;;;;;19.48;11.07;;;;;;;0.05;77.25;99494.16;7394288;19;20090;-61
2024/01/18 04:28:24;;;;;;;18.75;11.20;;;;;;;0.04;77.20;99496.81;7395474;19;20030;-61
2024/01/18 04:30:54;;;;;;;19.30;11.02;;;;;;;0.03;76.84;99497.75;7395405;19;20019;-61
2024/01/18 04:33:24;;;;;;;17.83;11.07;;;;;;;0.08;77.19;99511.41;7396362;19;20050;-58
2024/01/18 04:35:55;;;;;;;17.85;11.07;;;;;;;0.16;76.48;99506.63;7392946;19;20039;-61
2024/01/18 04:38:25;;;;;;;18.40;11.25;;;;;;;0.12;76.42;99516.38;7396178;19;20010;-61
2024/01/18 04:40:55;;;;;;;16.67;11.27;;;;;;;0.03;77.15;99523.78;7396697;19;20018;-61
2024/01/18 04:43:25;;;;;;;19.73;10.95;;;;;;;0.07;76.83;99518.34;7396362;19;20043;-59
2024/01/18 04:45:56;;;;;;;18.17;10.23;;;;;;;0.17;76.61;99524.75;7393830;19;20556;-61
2024/01/18 04:48:30;;;;;;;18.02;11.43;;;;;;;0.14;76.74;99526.69;7395403;19;20031;-60
2024/01/18 04:51:01;;;;;;;18.88;11.38;;;;;;;-0.03;77.00;99519.72;7395584;19;20018;-59
2024/01/18 04:53:39;;;;;;;18.48;11.18;;;;;;;0.03;77.32;99522.00;7392954;19;20017;-59
2024/01/18 04:56:10;;;;;;;21.13;11.73;;;;;;;-0.01;77.18;99529.13;7390996;19;20019;-56
2024/01/18 04:58:40;;;;;;;16.85;10.75;;;;;;;0.05;77.20;99533.19;7395417;19;20026;-56
2024/01/18 05:01:12;;;;;;;16.17;10.45;;;;;;;-0.05;77.48;99531.97;7394074;19;20383;-61
2024/01/18 05:03:45;;;;;;;18.10;11.35;;;;;;;-0.07;77.63;99526.84;7393988;19;20026;-61
2024/01/18 05:06:15;;;;;;;20.95;10.93;;;;;;;-0.06;77.95;99531.13;7391659;19;20046;-61
2024/01/18 05:08:46;;;;;;;17.67;10.80;;;;;;;-0.05;77.76;99534.56;7396093;19;20010;-58
2024/01/18 05:11:17;;;;;;;17.85;11.20;;;;;;;-0.04;77.59;99528.44;7393261;19;20023;-60
2024/01/18 05:13:46;;;;;;;17.92;10.40;;;;;;;-0.03;77.68;99538.78;7393298;19;20487;-60
2024/01/18 05:16:15;;;;;;;19.45;11.65;;;;;;;-0.06;77.60;99525.94;7391071;19;20018;-61
2024/01/18 05:18:44;;;;;;;18.52;11.15;;;;;;;-0.15;77.54;99525.53;7393607;19;20014;-60
2024/01/18 05:21:13;;;;;;;17.80;11.23;;;;;;;-0.24;77.69;99519.03;7394055;19;20297;-58
2024/01/18 05:23:42;;;;;;;17.92;10.90;;;;;;;-0.06;77.53;99527.69;7390735;19;20038;-59
2024/01/18 05:26:12;;;;;;;18.65;11.30;;;;;;;-0.07;77.23;99526.84;7392283;19;20033;-60
2024/01/18 05:28:41;;;;;;;18.98;10.70;;;;;;;-0.06;77.18;99512.06;7392932;19;20022;-59
2024/01/18 05:31:10;;;;;;;17.23;10.40;;;;;;;0.09;76.72;99526.91;7393642;19;20022;-60
2024/01/18 05:33:40;;;;;;;16.60;10.60;;;;;;;0.05;76.51;99532.38;7393482;19;20026;-60
2024/01/18 05:36:11;;;;;;;21.70;10.55;;;;;;;0.11;76.36;99542.44;7391028;19;20015;-60
2024/01/18 05:38:41;;;;;;;16.30;10.27;;;;;;;-0.04;76.86;99534.50;7393158;19;20018;-61
2024/01/18 05:41:14;;;;;;;17.07;9.90;;;;;;;-0.03;77.12;99549.19;7390779;19;20014;-60
2024/01/18 05:43:45;;;;;;;17.50;10.38;;;;;;;0.08;76.59;99553.88;7394017;19;20282;-58
2024/01/18 05:46:16;;;;;;;16.10;10.32;;;;;;;0.05;76.49;99555.78;7392346;19;20024;-59
2024/01/18 05:48:50;;;;;;;17.00;10.68;;;;;;;0.07;76.51;99559.13;7391887;19;20018;-60
2024/01/18 05:51:22;;;;;;;17.27;10.15;;;;;;;0.08;76.58;99560.84;7391479;19;20082;-60
2024/01/18 05:53:51;;;;;;;17.73;11.10;;;;;;;-0.04;77.00;99565.72;7393482;19;20029;-60
2024/01/18 05:56:20;;;;;;;17.63;10.75;;;;;;;-0.14;77.22;99569.69;7390100;19;20080;-61
2024/01/18 05:58:49;;;;;;;17.83;10.60;;;;;;;-0.24;77.50;99560.66;7390846;19;20025;-60
2024/01/18 06:01:21;;;;;;;17.45;10.35;;;;;;;-0.15;77.28;99570.63;7392189;19;20021;-61
2024/01/18 06:03:50;;;;;;;17.48;10.07;;;;;;;-0.07;77.32;99591.06;7390331;19;20042;-61
2024/01/18 06:06:20;;;;;;;15.55;10.00;;;;;;;-0.08;77.43;99581.53;7390323;19;20042;-61
2024/01/18 06:08:50;;;;;;;19.13;10.40;;;;;;;-0.10;77.73;99591.19;7392140;19;20360;-61
2024/01/18 06:11:21;;;;;;;17.25;9.82;;;;;;;-0.09;77.49;99598.91;7391813;19;20019;-61
2024/01/18 06:13:51;;;;;;;17.90;9.85;;;;;;;-0.21;77.75;99594.31;7392514;19;20078;-60
2024/01/18 06:16:21;;;;;;;15.02;9.85;;;;;;;-0.18;78.34;99596.78;7389433;19;20018;-59
2024/01/18 06:18:52;;;;;;;17.95;9.68;;;;;;;-0.10;78.14;99594.63;7392120;19;20019;-60
2024/01/18 06:21:23;;;;;;;16.75;9.68;;;;;;;-0.11;78.05;99605.13;7391563;19;20655;-60
2024/01/18 06:23:53;;;;;;;16.92;10.35;;;;;;;-0.07;78.09;99606.66;7391288;19;20029;-56
2024/01/18 06:26:24;;;;;;;19.25;10.93;;;;;;;0.03;77.76;99610.50;7387830;19;20373;-57
2024/01/18 06:28:54;;;;;;;17.17;10.15;;;;;;;-0.04;77.52;99607.38;7390618;19;20015;-59
2024/01/18 06:31:27;;;;;;;18.17;10.00;;;;;;;0.00;77.43;99618.47;7389534;19;20030;-59
2024/01/18 06:33:57;;;;;;;18.55;10.35;;;;;;;-0.12;77.76;99619.03;7394247;19;20371;-61
2024/01/18 06:36:29;;;;;;;14.43;9.90;;;;;;;-0.19;77.78;99628.03;7395484;19;20018;-61
2024/01/18 06:38:59;;;;;;;17.33;10.02;;;;;;;-0.23;77.84;99608.31;7398677;19;20031;-59
2024/01/18 06:41:37;;;;;;;15.07;9.63;;;;;;;-0.32;78.12;99618.22;7398396;19;20041;-56
2024/01/18 06:44:07;;;;;;;18.35;9.93;;;;;;;-0.43;78.31;99614.47;7397751;19;20054;-61
2024/01/18 06:46:38;;;;;;;18.00;10.25;;;;;;;-0.29;78.45;99632.88;7394190;19;20014;-61
2024/01/18 06:49:08;;;;;;;15.27;9.85;;;;;;;-0.26;78.06;99627.53;7397676;19;20427;-60
2024/01/18 06:51:39;;;;;;;15.95;9.35;;;;;;;-0.32;78.19;99625.19;7397627;19;20025;-59
2024/01/18 06:54:10;;;;;;;20.05;10.50;;;;;;;-0.34;78.37;99630.50;7398163;19;20026;-56
2024/01/18 06:56:44;;;;;;;16.35;9.57;;;;;;;-0.37;78.48;99635.81;7394729;19;20420;-54
2024/01/18 06:59:15;;;;;;;14.52;9.35;;;;;;;-0.36;78.51;99631.47;7398119;19;20081;-57
2024/01/18 07:01:46;;;;;;;15.57;9.00;;;;;;;-0.39;78.12;99635.03;7397260;19;20030;-54
2024/01/18 07:04:16;;;;;;;19.67;9.88;;;;;;;-0.30;78.41;99649.38;7398178;19;20018;-53
2024/01/18 07:06:47;;;;;;;17.17;9.93;;;;;;;-0.33;78.43;99652.97;7394877;19;20018;-55
2024/01/18 07:09:18;;;;;;;16.83;10.07;;;;;;;-0.63;78.65;99656.97;7397732;19;20018;-56
2024/01/18 07:11:48;;;;;;;15.95;9.82;;;;;;;-0.69;79.06;99660.69;7397516;19;20328;-54
2024/01/18 07:14:19;;;;;;;17.35;9.20;;;;;;;-0.47;79.25;99660.56;7398123;19;20007;-56
2024/01/18 07:16:50;;;;;;;16.15;9.43;;;;;;;-0.43;78.47;99650.88;7369415;19;20372;-58
2024/01/18 07:19:20;;;;;;;16.92;9.45;;;;;;;-0.35;78.17;99670.38;7396189;19;20022;-54
2024/01/18 07:21:53;;;;;;;17.88;9.40;;;;;;;-0.36;78.55;99675.66;7396895;19;20015;-54
2024/01/18 07:24:26;;;;;;;15.82;9.15;;;;;;;-0.44;78.60;99673.44;7396502;19;20021;-54
2024/01/18 07:26:57;;;;;;;16.80;9.98;;;;;;;-0.51;78.98;99678.06;7397984;19;20385;-56
2024/01/18 07:29:31;;;;;;;15.48;9.45;;;;;;;-0.41;78.75;99678.50;7396345;19;20036;-54
2024/01/18 07:32:02;;;;;;;21.77;9.52;;;;;;;-0.29;78.32;99671.88;7394987;19;20014;-53
2024/01/18 07:34:37;;;;;;;16.75;8.98;;;;;;;-0.36;77.93;99666.09;7397271;19;20011;-54
2024/01/18 07:37:08;;;;;;;16.00;8.55;;;;;;;-0.36;78.20;99668.72;7396692;19;20031;-58
2024/01/18 07:39:41;;;;;;;14.25;8.32;;;;;;;-0.33;78.02;99672.94;7394468;19;20018;-54
2024/01/18 07:42:11;;;;;;;15.38;8.43;;;;;;;-0.26;78.07;99674.34;7396436;19;20015;-55
2024/01/18 07:44:44;;;;;;;13.43;8.13;;;;;;;-0.22;78.15;99683.69;7394941;19;20019;-54
2024/01/18 07:47:16;;;;;;;14.25;7.82;;;;;;;-0.23;77.79;99681.97;7391629;19;20372;-54
2024/01/18 07:49:47;;;;;;;16.88;8.20;;;;;;;-0.38;78.10;99670.56;7395736;19;20027;-53
2024/01/18 07:52:20;;;;;;;16.15;8.90;;;;;;;-0.26;78.04;99695.16;7396716;19;20014;-54
2024/01/18 07:54:51;;;;;;;15.10;8.48;;;;;;;-0.19;77.92;99686.16;7396143;19;20018;-57
2024/01/18 07:57:21;;;;;;;13.82;8.45;;;;;;;-0.12;77.31;99699.69;7393080;19;20019;-53
2024/01/18 07:59:52;;;;;;;16.17;8.45;;;;;;;-0.17;77.42;99710.31;7396722;19;20043;-54
2024/01/18 08:02:22;;;;;;;16.10;8.52;;;;;;;-0.27;78.00;99720.31;7394236;19;20014;-54
2024/01/18 08:04:53;;;;;;;17.10;8.38;;;;;;;-0.27;78.01;99727.25;7395778;19;20022;-57
2024/01/18 08:07:23;;;;;;;14.30;8.10;;;;;;;-0.27;78.44;99727.25;7392255;19;20031;-56
2024/01/18 08:09:54;;;;;;;16.00;7.85;;;;;;;-0.17;77.67;99723.31;7395545;19;20018;-53
2024/01/18 08:12:24;;;;;;;17.38;8.70;;;;;;;-0.09;77.25;99728.19;7395423;19;20018;-54
2024/01/18 08:14:55;;;;;;;13.15;8.23;;;;;;;-0.24;77.66;99721.91;7393689;19;20493;-54
2024/01/18 08:17:25;;;;;;;13.65;7.72;;;;;;;-0.25;77.98;99728.88;7396011;19;20098;-54
2024/01/18 08:19:56;;;;;;;16.00;7.95;;;;;;;-0.08;77.72;99729.84;7393082;19;20368;-54
2024/01/18 08:22:27;;;;;;;13.77;7.63;;;;;;;0.08;76.90;99738.66;7394939;19;20022;-54
2024/01/18 08:24:57;;;;;;;15.55;7.70;;;;;;;0.00;76.93;99735.56;7394956;19;20112;-54
2024/01/18 08:27:31;;;;;;;13.50;8.07;;;;;;;-0.06;77.33;99738.44;7394947;19;20049;-55
2024/01/18 08:30:03;;;;;;;15.63;8.43;;;;;;;-0.08;77.79;99738.50;7393182;19;20654;-57
2024/01/18 08:32:38;;;;;;;15.90;7.88;;;;;;;0.07;77.27;99749.94;7393111;19;20343;-56
2024/01/18 08:35:09;;;;;;;12.80;8.25;;;;;;;0.06;77.16;99737.03;7393277;19;20015;-57
2024/01/18 08:37:41;;;;;;;14.32;7.80;;;;;;;0.14;77.09;99756.56;7395284;19;20010;-54
2024/01/18 08:40:12;;;;;;;13.60;7.45;;;;;;;0.13;76.66;99759.25;7393497;19;20010;-57
2024/01/18 08:42:50;;;;;;;15.23;7.72;;;;;;;0.11;77.12;99774.91;7394160;19;20014;-54
2024/01/18 08:45:21;;;;;;;16.55;7.30;;;;;;;0.13;77.35;99772.25;7393291;19;20031;-56
2024/01/18 08:47:50;;;;;;;15.15;7.20;;;;;;;0.13;77.15;99773.09;7394044;19;20082;-54
2024/01/18 08:50:23;;;;;;;14.77;7.93;;;;;;;0.24;77.44;99773.44;7392609;19;20030;-53
2024/01/18 08:52:54;;;;;;;14.80;7.63;;;;;;;0.30;76.53;99779.28;7392458;19;20078;-57
2024/01/18 08:55:23;;;;;;;13.88;7.82;;;;;;;0.23;77.46;99786.53;7392086;19;20085;-54
2024/01/18 08:57:54;;;;;;;13.38;7.43;;;;;;;0.37;76.86;99794.53;7392194;19;20018;-58
2024/01/18 09:00:27;;;;;;;13.25;7.22;;;;;;;0.33;76.93;99797.34;7394995;19;20022;-55
2024/01/18 09:03:00;;;;;;;13.10;6.82;;;;;;;0.26;76.71;99794.19;7393823;19;20097;-58
2024/01/18 09:05:38;;;;;;;13.60;7.22;;;;;;;0.19;77.20;99798.00;7392841;19;20510;-58
2024/01/18 09:08:10;;;;;;;13.32;7.38;;;;;;;0.24;77.41;99807.28;7393882;19;20085;-58
2024/01/18 09:10:42;;;;;;;14.88;7.28;;;;;;;0.27;77.47;99805.44;7394932;19;20023;-59
2024/01/18 09:13:13;;;;;;;14.20;6.95;;;;;;;0.35;77.21;99819.81;7393036;19;20014;-59
2024/01/18 09:15:47;;;;;;;13.63;7.50;;;;;;;0.46;77.29;99812.34;7389631;19;20424;-56
2024/01/18 09:18:17;;;;;;;16.55;9.60;;;;;;;0.46;77.04;99817.56;7392773;19;20025;-54
2024/01/18 09:20:48;;;;;;;17.38;9.73;;;;;;;0.50;77.22;99820.84;7393227;19;20026;-59
2024/01/18 09:23:19;;;;;;;14.75;8.82;;;;;;;0.54;77.08;99830.22;7392512;19;20529;-54
2024/01/18 09:25:49;;;;;;;14.50;7.88;;;;;;;0.60;76.95;99827.28;7390478;19;20063;-57
2024/01/18 09:28:20;;;;;;;10.25;6.32;;;;;;;0.62;77.14;99835.91;7390334;19;20027;-55
2024/01/18 09:30:51;;;;;;;14.55;6.90;;;;;;;0.77;76.82;99851.72;7391254;19;20029;-57
2024/01/18 09:33:21;;;;;;;14.07;6.90;;;;;;;0.77;76.69;99849.13;7391214;19;20035;-57
2024/01/18 09:35:52;;;;;;;11.27;6.47;;;;;;;0.82;76.59;99847.13;7390283;19;20022;-54
2024/01/18 09:38:22;;;;;;;13.45;6.90;;;;;;;0.85;76.57;99841.78;7391977;19;20032;-54
2024/01/18 09:41:03;;;;;;;12.82;6.30;;;;;;;0.84;76.64;99851.34;7394930;19;20085;-54
2024/01/18 09:43:39;;;;;;;14.18;6.65;;;;;;;0.83;76.88;99860.06;7391081;19;20022;-57
2024/01/18 09:46:11;;;;;;;17.23;7.57;;;;;;;1.05;76.51;99869.47;7389586;19;20018;-57
2024/01/18 09:48:44;;;;;;;13.93;6.28;;;;;;;1.05;76.30;99864.25;7394473;19;20016;-59
2024/01/18 09:51:15;;;;;;;10.10;5.60;;;;;;;1.10;76.00;99872.69;7393084;19;20011;-58
2024/01/18 09:53:48;;;;;;;11.45;6.15;;;;;;;0.96;76.54;99873.38;7391908;19;20011;-57
2024/01/18 09:56:23;;;;;;;10.57;5.57;;;;;;;1.00;76.70;99874.06;7389760;19;20062;-54
2024/01/18 09:58:55;;;;;;;10.18;5.82;;;;;;;0.90;77.16;99877.09;7392152;19;20042;-56
2024/01/18 10:01:25;;;;;;;10.35;5.40;;;;;;;1.01;76.73;99868.78;7392339;19;20022;-53
2024/01/18 10:03:56;;;;;;;9.85;5.32;;;;;;;1.31;76.04;99884.66;7391925;19;20021;-53
2024/01/18 10:06:29;;;;;;;10.23;5.50;;;;;;;1.36;75.94;99893.09;7390216;19;20022;-53
2024/01/18 10:09:00;;;;;;;9.70;4.63;;;;;;;1.42;76.01;99894.56;7395506;19;20018;-54
2024/01/18 10:11:37;;;;;;;7.80;4.50;;;;;;;1.55;75.45;99894.78;7400988;19;20018;-55
2024/01/18 10:14:07;;;;;;;10.40;4.97;;;;;;;1.47;75.54;99900.41;7399965;19;20398;-54
2024/01/18 10:16:40;;;;;;;8.60;4.72;;;;;;;1.50;75.71;99907.25;7400630;19;20100;-59
2024/01/18 10:19:18;;;;;;;10.43;4.53;;;;;;;1.45;76.07;99905.69;7401768;19;20029;-56
2024/01/18 10:21:49;;;;;;;10.50;4.63;;;;;;;1.46;76.30;99906.53;7403763;19;20040;-55
2024/01/18 10:24:20;;;;;;;9.18;4.30;;;;;;;1.46;76.27;99915.22;7402021;19;20023;-57
2024/01/18 10:27:04;;;;;;;9.40;4.50;;;;;;;1.43;76.75;99917.13;7399809;19;20010;-56
2024/01/18 10:29:38;;;;;;;7.47;4.13;;;;;;;1.47;76.85;99918.66;7374023;19;20490;-55
2024/01/18 10:32:09;;;;;;;10.90;4.35;;;;;;;1.50;76.63;99917.66;7347292;19;325870;-54
2024/01/18 10:34:39;;;;;;;10.93;4.68;;;;;;;1.64;76.31;99941.28;7398511;19;20037;-56
2024/01/18 10:37:15;;;;;;;10.38;4.30;;;;;;;1.66;76.23;99942.06;7397446;19;20018;-56
2024/01/18 10:39:46;;;;;;;12.02;4.85;;;;;;;1.73;76.28;99932.16;7400544;19;20018;-55
2024/01/18 10:42:18;;;;;;;10.90;5.05;;;;;;;2.10;75.17;99942.41;7401954;19;20026;-54
2024/01/18 10:44:50;;;;;;;9.77;4.90;;;;;;;2.31;74.50;99947.44;7400972;19;20035;-53
2024/01/18 10:47:22;;;;;;;9.32;5.18;;;;;;;2.30;74.64;99945.75;7399228;19;20026;-54
2024/01/18 10:49:54;;;;;;;9.95;5.30;;;;;;;2.11;75.09;99935.44;7401582;19;20022;-54
2024/01/18 10:52:30;;;;;;;11.93;5.45;;;;;;;2.22;75.47;99948.78;7400269;19;20085;-53
2024/01/18 10:55:06;;;;;;;9.27;5.13;;;;;;;2.29;75.14;99950.13;7402003;19;20018;-55
2024/01/18 10:57:41;;;;;;;13.65;5.43;;;;;;;2.40;75.01;99958.25;7398499;19;20038;-54
2024/01/18 11:00:16;;;;;;;9.85;4.78;;;;;;;2.40;75.18;99965.22;7400763;19;20489;-57
2024/01/18 11:02:51;;;;;;;9.95;4.63;;;;;;;2.47;75.19;99979.66;7401115;19;20022;-56
2024/01/18 11:05:22;;;;;;;11.90;5.50;;;;;;;2.47;75.30;99973.59;7400524;19;20398;-55
2024/01/18 11:07:54;;;;;;;13.20;5.22;;;;;;;2.42;75.42;99969.47;7402119;19;20014;-56
2024/01/18 11:10:25;;;;;;;10.73;4.82;;;;;;;2.34;75.37;99968.19;7399964;19;20045;-54
2024/01/18 11:12:55;;;;;;;13.57;5.57;;;;;;;2.30;75.45;99974.50;7400368;19;20491;-55
2024/01/18 11:15:27;;;;;;;10.02;4.78;;;;;;;2.31;75.74;99987.47;7400903;19;20090;-54
2024/01/18 11:18:00;;;;;;;10.77;4.53;;;;;;;2.32;75.89;99994.38;7396025;19;20408;-57
2024/01/18 11:20:59;;;;;;;9.30;4.57;;;;;;;2.38;75.68;99995.84;7398225;19;20018;-55
2024/01/18 11:23:40;;;;;;;16.33;6.30;;;;;;;2.47;75.13;100005.78;7400684;19;20018;-54
2024/01/18 11:26:25;;;;;;;18.70;7.97;;;;;;;2.63;74.79;100005.81;7395912;19;20500;-56
2024/01/18 11:29:25;;;;;;;18.35;7.25;;;;;;;2.64;74.75;100010.97;7400372;19;20069;-58
2024/01/18 11:31:56;;;;;;;11.68;5.80;;;;;;;2.44;74.79;100017.25;7397814;19;20534;-54
2024/01/18 11:34:40;;;;;;;9.02;4.13;;;;;;;2.38;74.88;100022.78;7398030;19;20256;-55
2024/01/18 11:37:13;;;;;;;12.50;4.10;;;;;;;2.32;75.17;100017.88;7395637;19;20011;-58
2024/01/18 11:39:48;;;;;;;9.52;4.03;;;;;;;2.24;75.04;100019.19;7398393;19;20066;-54
2024/01/18 11:42:20;;;;;;;7.70;3.47;;;;;;;2.19;75.20;100027.28;7395380;19;20023;-54
2024/01/18 11:45:12;;;;;;;9.25;3.38;;;;;;;2.26;74.93;100022.59;7400083;19;20087;-57
2024/01/18 11:47:46;;;;;;;7.63;3.50;;;;;;;2.27;75.28;100013.81;7398908;19;20349;-55